sensor_id;sensor_type;location;lat;lon;timestamp;P1;durP1;ratioP1;P2;durP2;ratioP2
16965;SDS011;8599;47.852;12.070;2022-12-15T00:02:29;6.70;;;4.37;;
16965;SDS011;8599;47.852;12.070;2022-12-15T00:05:14;10.10;;;5.97;;
16965;SDS011;8599;47.852;12.070;2022-12-15T00:08:04;11.40;;;6.63;;
16965;SDS011;8599;47.852;12.070;2022-12-15T00:10:49;10.67;;;6.20;;
16965;SDS011;8599;47.852;12.070;2022-12-15T00:13:34;12.47;;;6.37;;
16965;SDS011;8599;47.852;12.070;2022-12-15T00:16:19;6.87;;;4.97;;
16965;SDS011;8599;47.852;12.070;2022-12-15T00:19:03;7.30;;;4.93;;
16965;SDS011;8599;47.852;12.070;2022-12-15T00:21:47;8.03;;;4.97;;
16965;SDS011;8599;47.852;12.070;2022-12-15T00:24:32;10.07;;;5.93;;
16965;SDS011;8599;47.852;12.070;2022-12-15T00:27:16;6.37;;;4.73;;
16965;SDS011;8599;47.852;12.070;2022-12-15T00:30:02;8.10;;;4.77;;
16965;SDS011;8599;47.852;12.070;2022-12-15T00:32:46;10.60;;;5.17;;
16965;SDS011;8599;47.852;12.070;2022-12-15T00:35:30;7.30;;;3.83;;
16965;SDS011;8599;47.852;12.070;2022-12-15T00:38:15;5.27;;;4.13;;
16965;SDS011;8599;47.852;12.070;2022-12-15T00:40:59;8.40;;;5.40;;
16965;SDS011;8599;47.852;12.070;2022-12-15T00:43:26;6.70;;;4.60;;
16965;SDS011;8599;47.852;12.070;2022-12-15T00:45:54;6.20;;;4.70;;
16965;SDS011;8599;47.852;12.070;2022-12-15T00:48:39;9.27;;;5.53;;
16965;SDS011;8599;47.852;12.070;2022-12-15T00:51:06;9.50;;;4.97;;
16965;SDS011;8599;47.852;12.070;2022-12-15T00:53:33;7.07;;;5.40;;
16965;SDS011;8599;47.852;12.070;2022-12-15T00:56:17;9.37;;;5.07;;
16965;SDS011;8599;47.852;12.070;2022-12-15T00:59:02;10.47;;;6.13;;
16965;SDS011;8599;47.852;12.070;2022-12-15T01:01:47;9.23;;;5.47;;
16965;SDS011;8599;47.852;12.070;2022-12-15T01:04:32;8.20;;;4.70;;
16965;SDS011;8599;47.852;12.070;2022-12-15T01:07:16;5.73;;;3.93;;
16965;SDS011;8599;47.852;12.070;2022-12-15T01:10:00;9.13;;;5.37;;
16965;SDS011;8599;47.852;12.070;2022-12-15T01:12:45;7.67;;;5.20;;
16965;SDS011;8599;47.852;12.070;2022-12-15T01:15:29;10.47;;;5.73;;
16965;SDS011;8599;47.852;12.070;2022-12-15T01:18:15;10.37;;;6.27;;
16965;SDS011;8599;47.852;12.070;2022-12-15T01:21:00;12.67;;;6.63;;
16965;SDS011;8599;47.852;12.070;2022-12-15T01:23:29;15.27;;;7.03;;
16965;SDS011;8599;47.852;12.070;2022-12-15T01:25:56;9.90;;;6.17;;
16965;SDS011;8599;47.852;12.070;2022-12-15T01:28:23;12.27;;;6.63;;
16965;SDS011;8599;47.852;12.070;2022-12-15T01:30:50;10.00;;;6.57;;
16965;SDS011;8599;47.852;12.070;2022-12-15T01:33:18;12.33;;;6.67;;
16965;SDS011;8599;47.852;12.070;2022-12-15T01:35:53;9.37;;;5.97;;
16965;SDS011;8599;47.852;12.070;2022-12-15T01:38:21;7.60;;;5.10;;
16965;SDS011;8599;47.852;12.070;2022-12-15T01:40:49;8.27;;;5.17;;
16965;SDS011;8599;47.852;12.070;2022-12-15T01:43:18;8.10;;;5.33;;
16965;SDS011;8599;47.852;12.070;2022-12-15T01:45:49;6.60;;;4.57;;
16965;SDS011;8599;47.852;12.070;2022-12-15T01:48:22;6.63;;;4.83;;
16965;SDS011;8599;47.852;12.070;2022-12-15T01:50:55;9.53;;;6.13;;
16965;SDS011;8599;47.852;12.070;2022-12-15T01:53:28;7.93;;;4.97;;
16965;SDS011;8599;47.852;12.070;2022-12-15T01:55:58;13.20;;;6.17;;
16965;SDS011;8599;47.852;12.070;2022-12-15T01:58:25;7.60;;;4.77;;
16965;SDS011;8599;47.852;12.070;2022-12-15T02:00:53;6.97;;;5.67;;
16965;SDS011;8599;47.852;12.070;2022-12-15T02:03:21;9.17;;;5.43;;
16965;SDS011;8599;47.852;12.070;2022-12-15T02:05:48;9.83;;;5.43;;
16965;SDS011;8599;47.852;12.070;2022-12-15T02:08:17;8.53;;;5.90;;
16965;SDS011;8599;47.852;12.070;2022-12-15T02:10:49;10.33;;;5.53;;
16965;SDS011;8599;47.852;12.070;2022-12-15T02:13:29;8.83;;;5.90;;
16965;SDS011;8599;47.852;12.070;2022-12-15T02:16:01;7.03;;;4.97;;
16965;SDS011;8599;47.852;12.070;2022-12-15T02:18:36;13.53;;;6.23;;
16965;SDS011;8599;47.852;12.070;2022-12-15T02:21:12;10.90;;;6.30;;
16965;SDS011;8599;47.852;12.070;2022-12-15T02:26:51;8.10;;;5.30;;
16965;SDS011;8599;47.852;12.070;2022-12-15T02:32:46;7.17;;;4.50;;
16965;SDS011;8599;47.852;12.070;2022-12-15T02:35:20;6.73;;;5.40;;
16965;SDS011;8599;47.852;12.070;2022-12-15T02:37:53;8.47;;;6.50;;
16965;SDS011;8599;47.852;12.070;2022-12-15T02:40:20;10.70;;;5.27;;
16965;SDS011;8599;47.852;12.070;2022-12-15T02:42:48;8.67;;;6.17;;
16965;SDS011;8599;47.852;12.070;2022-12-15T02:45:19;8.13;;;5.57;;
16965;SDS011;8599;47.852;12.070;2022-12-15T02:47:54;9.00;;;6.17;;
16965;SDS011;8599;47.852;12.070;2022-12-15T02:53:34;10.37;;;6.10;;
16965;SDS011;8599;47.852;12.070;2022-12-15T02:56:17;10.17;;;5.63;;
16965;SDS011;8599;47.852;12.070;2022-12-15T02:58:53;11.60;;;5.97;;
16965;SDS011;8599;47.852;12.070;2022-12-15T03:01:26;7.87;;;5.17;;
16965;SDS011;8599;47.852;12.070;2022-12-15T03:03:59;9.90;;;5.57;;
16965;SDS011;8599;47.852;12.070;2022-12-15T03:06:28;8.83;;;5.50;;
16965;SDS011;8599;47.852;12.070;2022-12-15T03:08:55;9.83;;;5.90;;
16965;SDS011;8599;47.852;12.070;2022-12-15T03:11:22;9.90;;;5.97;;
16965;SDS011;8599;47.852;12.070;2022-12-15T03:13:49;9.90;;;5.97;;
16965;SDS011;8599;47.852;12.070;2022-12-15T03:16:16;13.60;;;7.73;;
16965;SDS011;8599;47.852;12.070;2022-12-15T03:18:43;11.63;;;6.43;;
16965;SDS011;8599;47.852;12.070;2022-12-15T03:21:11;16.53;;;7.13;;
16965;SDS011;8599;47.852;12.070;2022-12-15T03:23:38;12.40;;;7.30;;
16965;SDS011;8599;47.852;12.070;2022-12-15T03:26:05;11.50;;;6.80;;
16965;SDS011;8599;47.852;12.070;2022-12-15T03:28:32;14.33;;;6.70;;
16965;SDS011;8599;47.852;12.070;2022-12-15T03:30:59;13.23;;;7.70;;
16965;SDS011;8599;47.852;12.070;2022-12-15T03:33:26;9.60;;;5.97;;
16965;SDS011;8599;47.852;12.070;2022-12-15T03:35:52;14.10;;;7.23;;
16965;SDS011;8599;47.852;12.070;2022-12-15T03:38:21;16.20;;;7.90;;
16965;SDS011;8599;47.852;12.070;2022-12-15T03:40:47;11.27;;;6.87;;
16965;SDS011;8599;47.852;12.070;2022-12-15T03:43:14;12.20;;;7.47;;
16965;SDS011;8599;47.852;12.070;2022-12-15T03:45:41;15.37;;;7.93;;
16965;SDS011;8599;47.852;12.070;2022-12-15T03:48:08;9.77;;;6.57;;
16965;SDS011;8599;47.852;12.070;2022-12-15T03:50:35;17.17;;;8.40;;
16965;SDS011;8599;47.852;12.070;2022-12-15T03:53:02;11.43;;;7.20;;
16965;SDS011;8599;47.852;12.070;2022-12-15T03:55:31;12.37;;;7.03;;
16965;SDS011;8599;47.852;12.070;2022-12-15T03:57:59;16.50;;;8.47;;
16965;SDS011;8599;47.852;12.070;2022-12-15T04:00:26;13.83;;;8.07;;
16965;SDS011;8599;47.852;12.070;2022-12-15T04:02:54;14.67;;;7.73;;
16965;SDS011;8599;47.852;12.070;2022-12-15T04:05:22;11.03;;;7.50;;
16965;SDS011;8599;47.852;12.070;2022-12-15T04:07:50;16.13;;;8.57;;
16965;SDS011;8599;47.852;12.070;2022-12-15T04:10:17;15.53;;;9.47;;
16965;SDS011;8599;47.852;12.070;2022-12-15T04:12:46;16.47;;;9.17;;
16965;SDS011;8599;47.852;12.070;2022-12-15T04:15:13;14.97;;;7.80;;
16965;SDS011;8599;47.852;12.070;2022-12-15T04:17:40;18.57;;;8.77;;
16965;SDS011;8599;47.852;12.070;2022-12-15T04:20:07;16.37;;;8.37;;
16965;SDS011;8599;47.852;12.070;2022-12-15T04:22:34;15.27;;;8.53;;
16965;SDS011;8599;47.852;12.070;2022-12-15T04:25:01;14.60;;;8.33;;
16965;SDS011;8599;47.852;12.070;2022-12-15T04:27:48;11.77;;;7.67;;
16965;SDS011;8599;47.852;12.070;2022-12-15T04:30:32;16.17;;;8.63;;
16965;SDS011;8599;47.852;12.070;2022-12-15T04:33:17;18.47;;;11.27;;
16965;SDS011;8599;47.852;12.070;2022-12-15T04:36:03;15.50;;;8.70;;
16965;SDS011;8599;47.852;12.070;2022-12-15T04:38:48;12.33;;;6.50;;
16965;SDS011;8599;47.852;12.070;2022-12-15T04:41:32;13.97;;;8.63;;
16965;SDS011;8599;47.852;12.070;2022-12-15T04:44:19;12.50;;;7.93;;
16965;SDS011;8599;47.852;12.070;2022-12-15T04:47:03;15.50;;;7.93;;
16965;SDS011;8599;47.852;12.070;2022-12-15T04:49:47;14.33;;;8.93;;
16965;SDS011;8599;47.852;12.070;2022-12-15T04:52:31;14.77;;;8.47;;
16965;SDS011;8599;47.852;12.070;2022-12-15T04:55:16;12.47;;;9.17;;
16965;SDS011;8599;47.852;12.070;2022-12-15T04:58:03;17.50;;;10.03;;
16965;SDS011;8599;47.852;12.070;2022-12-15T05:00:50;17.73;;;8.37;;
16965;SDS011;8599;47.852;12.070;2022-12-15T05:03:34;14.27;;;8.87;;
16965;SDS011;8599;47.852;12.070;2022-12-15T05:06:19;13.47;;;8.07;;
16965;SDS011;8599;47.852;12.070;2022-12-15T05:09:03;15.67;;;9.47;;
16965;SDS011;8599;47.852;12.070;2022-12-15T05:11:48;25.77;;;11.17;;
16965;SDS011;8599;47.852;12.070;2022-12-15T05:14:32;18.33;;;9.17;;
16965;SDS011;8599;47.852;12.070;2022-12-15T05:17:18;15.43;;;9.20;;
16965;SDS011;8599;47.852;12.070;2022-12-15T05:20:02;17.80;;;11.40;;
16965;SDS011;8599;47.852;12.070;2022-12-15T05:22:51;15.63;;;9.57;;
16965;SDS011;8599;47.852;12.070;2022-12-15T05:25:35;16.87;;;9.63;;
16965;SDS011;8599;47.852;12.070;2022-12-15T05:28:20;17.77;;;10.80;;
16965;SDS011;8599;47.852;12.070;2022-12-15T05:31:05;15.30;;;9.37;;
16965;SDS011;8599;47.852;12.070;2022-12-15T05:33:51;16.33;;;9.90;;
16965;SDS011;8599;47.852;12.070;2022-12-15T05:36:18;19.10;;;10.40;;
16965;SDS011;8599;47.852;12.070;2022-12-15T05:38:46;26.70;;;11.50;;
16965;SDS011;8599;47.852;12.070;2022-12-15T05:41:13;21.20;;;10.43;;
16965;SDS011;8599;47.852;12.070;2022-12-15T05:43:40;16.47;;;9.17;;
16965;SDS011;8599;47.852;12.070;2022-12-15T05:46:07;14.10;;;9.00;;
16965;SDS011;8599;47.852;12.070;2022-12-15T05:48:34;19.70;;;10.40;;
16965;SDS011;8599;47.852;12.070;2022-12-15T05:51:03;16.27;;;9.13;;
16965;SDS011;8599;47.852;12.070;2022-12-15T05:53:31;16.70;;;10.03;;
16965;SDS011;8599;47.852;12.070;2022-12-15T05:56:01;27.10;;;11.20;;
16965;SDS011;8599;47.852;12.070;2022-12-15T05:58:28;18.60;;;9.80;;
16965;SDS011;8599;47.852;12.070;2022-12-15T06:01:01;25.33;;;12.30;;
16965;SDS011;8599;47.852;12.070;2022-12-15T06:03:28;20.87;;;12.17;;
16965;SDS011;8599;47.852;12.070;2022-12-15T06:05:55;30.48;;;17.55;;
16965;SDS011;8599;47.852;12.070;2022-12-15T06:08:24;23.47;;;11.70;;
16965;SDS011;8599;47.852;12.070;2022-12-15T06:10:51;23.63;;;13.20;;
16965;SDS011;8599;47.852;12.070;2022-12-15T06:13:18;27.57;;;12.30;;
16965;SDS011;8599;47.852;12.070;2022-12-15T06:15:52;20.47;;;11.70;;
16965;SDS011;8599;47.852;12.070;2022-12-15T06:18:20;18.73;;;9.90;;
16965;SDS011;8599;47.852;12.070;2022-12-15T06:20:47;18.87;;;10.60;;
16965;SDS011;8599;47.852;12.070;2022-12-15T06:23:14;20.50;;;10.17;;
16965;SDS011;8599;47.852;12.070;2022-12-15T06:25:42;19.63;;;10.50;;
16965;SDS011;8599;47.852;12.070;2022-12-15T06:28:08;20.87;;;9.87;;
16965;SDS011;8599;47.852;12.070;2022-12-15T06:30:35;20.83;;;9.77;;
16965;SDS011;8599;47.852;12.070;2022-12-15T06:33:02;19.90;;;8.77;;
16965;SDS011;8599;47.852;12.070;2022-12-15T06:35:29;19.50;;;10.57;;
16965;SDS011;8599;47.852;12.070;2022-12-15T06:37:56;20.20;;;10.80;;
16965;SDS011;8599;47.852;12.070;2022-12-15T06:40:23;21.50;;;11.23;;
16965;SDS011;8599;47.852;12.070;2022-12-15T06:42:51;25.90;;;11.50;;
16965;SDS011;8599;47.852;12.070;2022-12-15T06:45:18;26.73;;;12.43;;
16965;SDS011;8599;47.852;12.070;2022-12-15T06:47:46;16.43;;;9.50;;
16965;SDS011;8599;47.852;12.070;2022-12-15T06:50:13;19.33;;;10.20;;
16965;SDS011;8599;47.852;12.070;2022-12-15T06:52:40;20.80;;;10.07;;
16965;SDS011;8599;47.852;12.070;2022-12-15T06:55:07;19.80;;;10.30;;
16965;SDS011;8599;47.852;12.070;2022-12-15T06:57:34;18.03;;;10.10;;
16965;SDS011;8599;47.852;12.070;2022-12-15T07:00:04;17.30;;;10.50;;
16965;SDS011;8599;47.852;12.070;2022-12-15T07:02:33;18.30;;;9.73;;
16965;SDS011;8599;47.852;12.070;2022-12-15T07:05:00;19.00;;;9.07;;
16965;SDS011;8599;47.852;12.070;2022-12-15T07:07:27;18.77;;;10.33;;
16965;SDS011;8599;47.852;12.070;2022-12-15T07:09:54;15.90;;;9.30;;
16965;SDS011;8599;47.852;12.070;2022-12-15T07:12:21;21.90;;;9.47;;
16965;SDS011;8599;47.852;12.070;2022-12-15T07:14:47;23.63;;;12.30;;
16965;SDS011;8599;47.852;12.070;2022-12-15T07:17:16;20.67;;;10.57;;
16965;SDS011;8599;47.852;12.070;2022-12-15T07:19:43;21.63;;;11.10;;
16965;SDS011;8599;47.852;12.070;2022-12-15T07:22:09;19.13;;;9.77;;
16965;SDS011;8599;47.852;12.070;2022-12-15T07:24:36;25.67;;;11.80;;
16965;SDS011;8599;47.852;12.070;2022-12-15T07:27:03;24.77;;;10.93;;
16965;SDS011;8599;47.852;12.070;2022-12-15T07:29:30;21.33;;;11.87;;
16965;SDS011;8599;47.852;12.070;2022-12-15T07:31:57;21.40;;;11.93;;
16965;SDS011;8599;47.852;12.070;2022-12-15T07:34:26;27.37;;;12.57;;
16965;SDS011;8599;47.852;12.070;2022-12-15T07:36:53;25.97;;;11.60;;
16965;SDS011;8599;47.852;12.070;2022-12-15T07:39:19;24.63;;;12.90;;
16965;SDS011;8599;47.852;12.070;2022-12-15T07:41:46;33.10;;;12.50;;
16965;SDS011;8599;47.852;12.070;2022-12-15T07:44:13;19.17;;;9.90;;
16965;SDS011;8599;47.852;12.070;2022-12-15T07:46:40;23.40;;;12.20;;
16965;SDS011;8599;47.852;12.070;2022-12-15T07:49:10;25.73;;;12.57;;
16965;SDS011;8599;47.852;12.070;2022-12-15T07:51:38;30.33;;;13.03;;
16965;SDS011;8599;47.852;12.070;2022-12-15T07:54:05;27.03;;;11.80;;
16965;SDS011;8599;47.852;12.070;2022-12-15T07:56:33;18.93;;;10.33;;
16965;SDS011;8599;47.852;12.070;2022-12-15T07:59:00;27.90;;;11.60;;
16965;SDS011;8599;47.852;12.070;2022-12-15T08:01:27;24.07;;;11.87;;
16965;SDS011;8599;47.852;12.070;2022-12-15T08:03:54;27.77;;;12.63;;
16965;SDS011;8599;47.852;12.070;2022-12-15T08:06:20;33.73;;;14.77;;
16965;SDS011;8599;47.852;12.070;2022-12-15T08:08:49;27.13;;;13.37;;
16965;SDS011;8599;47.852;12.070;2022-12-15T08:11:16;31.23;;;13.27;;
16965;SDS011;8599;47.852;12.070;2022-12-15T08:13:46;32.03;;;13.97;;
16965;SDS011;8599;47.852;12.070;2022-12-15T08:16:14;28.53;;;12.20;;
16965;SDS011;8599;47.852;12.070;2022-12-15T08:18:41;22.37;;;12.07;;
16965;SDS011;8599;47.852;12.070;2022-12-15T08:21:08;23.33;;;12.33;;
16965;SDS011;8599;47.852;12.070;2022-12-15T08:23:35;27.20;;;12.83;;
16965;SDS011;8599;47.852;12.070;2022-12-15T08:26:06;25.67;;;12.07;;
16965;SDS011;8599;47.852;12.070;2022-12-15T08:28:34;23.97;;;11.77;;
16965;SDS011;8599;47.852;12.070;2022-12-15T08:31:02;26.07;;;13.17;;
16965;SDS011;8599;47.852;12.070;2022-12-15T08:33:30;30.00;;;13.83;;
16965;SDS011;8599;47.852;12.070;2022-12-15T08:35:58;27.93;;;13.13;;
16965;SDS011;8599;47.852;12.070;2022-12-15T08:38:27;31.20;;;13.10;;
16965;SDS011;8599;47.852;12.070;2022-12-15T08:40:54;26.60;;;12.60;;
16965;SDS011;8599;47.852;12.070;2022-12-15T08:43:23;31.13;;;13.73;;
16965;SDS011;8599;47.852;12.070;2022-12-15T08:45:50;24.70;;;13.40;;
16965;SDS011;8599;47.852;12.070;2022-12-15T08:48:17;29.67;;;14.10;;
16965;SDS011;8599;47.852;12.070;2022-12-15T08:50:44;25.63;;;12.57;;
16965;SDS011;8599;47.852;12.070;2022-12-15T08:53:11;26.60;;;12.47;;
16965;SDS011;8599;47.852;12.070;2022-12-15T08:55:38;28.57;;;13.57;;
16965;SDS011;8599;47.852;12.070;2022-12-15T08:58:05;27.80;;;14.00;;
16965;SDS011;8599;47.852;12.070;2022-12-15T09:00:33;24.37;;;12.73;;
16965;SDS011;8599;47.852;12.070;2022-12-15T09:03:00;30.07;;;13.53;;
16965;SDS011;8599;47.852;12.070;2022-12-15T09:05:27;30.93;;;14.90;;
16965;SDS011;8599;47.852;12.070;2022-12-15T09:07:54;21.20;;;11.70;;
16965;SDS011;8599;47.852;12.070;2022-12-15T09:10:23;25.93;;;13.27;;
16965;SDS011;8599;47.852;12.070;2022-12-15T09:12:50;27.20;;;14.27;;
16965;SDS011;8599;47.852;12.070;2022-12-15T09:15:17;26.37;;;14.33;;
16965;SDS011;8599;47.852;12.070;2022-12-15T09:17:45;28.77;;;13.57;;
16965;SDS011;8599;47.852;12.070;2022-12-15T09:20:12;33.73;;;13.93;;
16965;SDS011;8599;47.852;12.070;2022-12-15T09:22:40;25.10;;;13.03;;
16965;SDS011;8599;47.852;12.070;2022-12-15T09:25:07;25.70;;;14.40;;
16965;SDS011;8599;47.852;12.070;2022-12-15T09:27:34;22.10;;;11.87;;
16965;SDS011;8599;47.852;12.070;2022-12-15T09:30:02;24.83;;;12.73;;
16965;SDS011;8599;47.852;12.070;2022-12-15T09:32:29;31.97;;;14.70;;
16965;SDS011;8599;47.852;12.070;2022-12-15T09:34:57;36.43;;;13.13;;
16965;SDS011;8599;47.852;12.070;2022-12-15T09:37:24;26.50;;;13.00;;
16965;SDS011;8599;47.852;12.070;2022-12-15T09:39:51;21.67;;;11.83;;
16965;SDS011;8599;47.852;12.070;2022-12-15T09:42:22;31.00;;;14.20;;
16965;SDS011;8599;47.852;12.070;2022-12-15T09:44:51;29.60;;;12.60;;
16965;SDS011;8599;47.852;12.070;2022-12-15T09:47:28;35.17;;;14.30;;
16965;SDS011;8599;47.852;12.070;2022-12-15T09:50:07;28.80;;;14.57;;
16965;SDS011;8599;47.852;12.070;2022-12-15T09:52:40;29.27;;;14.23;;
16965;SDS011;8599;47.852;12.070;2022-12-15T09:55:17;28.50;;;12.40;;
16965;SDS011;8599;47.852;12.070;2022-12-15T09:57:47;31.70;;;14.17;;
16965;SDS011;8599;47.852;12.070;2022-12-15T10:00:18;28.07;;;13.60;;
16965;SDS011;8599;47.852;12.070;2022-12-15T10:02:59;26.37;;;13.50;;
16965;SDS011;8599;47.852;12.070;2022-12-15T10:06:09;26.47;;;14.47;;
16965;SDS011;8599;47.852;12.070;2022-12-15T10:08:39;27.13;;;12.03;;
16965;SDS011;8599;47.852;12.070;2022-12-15T10:11:15;33.03;;;14.30;;
16965;SDS011;8599;47.852;12.070;2022-12-15T10:13:49;23.90;;;12.03;;
16965;SDS011;8599;47.852;12.070;2022-12-15T10:16:20;30.53;;;13.83;;
16965;SDS011;8599;47.852;12.070;2022-12-15T10:18:56;23.73;;;12.13;;
16965;SDS011;8599;47.852;12.070;2022-12-15T10:21:29;29.53;;;13.43;;
16965;SDS011;8599;47.852;12.070;2022-12-15T10:23:58;36.73;;;14.37;;
16965;SDS011;8599;47.852;12.070;2022-12-15T10:26:34;26.83;;;14.47;;
16965;SDS011;8599;47.852;12.070;2022-12-15T10:29:03;27.37;;;13.60;;
16965;SDS011;8599;47.852;12.070;2022-12-15T10:31:41;25.70;;;13.33;;
16965;SDS011;8599;47.852;12.070;2022-12-15T10:34:17;32.87;;;13.43;;
16965;SDS011;8599;47.852;12.070;2022-12-15T10:36:52;26.23;;;13.17;;
16965;SDS011;8599;47.852;12.070;2022-12-15T10:39:20;32.50;;;12.73;;
16965;SDS011;8599;47.852;12.070;2022-12-15T10:44:45;37.07;;;15.67;;
16965;SDS011;8599;47.852;12.070;2022-12-15T10:47:16;22.90;;;13.60;;
16965;SDS011;8599;47.852;12.070;2022-12-15T10:49:47;25.93;;;13.90;;
16965;SDS011;8599;47.852;12.070;2022-12-15T10:52:17;31.73;;;14.83;;
16965;SDS011;8599;47.852;12.070;2022-12-15T10:54:50;30.43;;;12.97;;
16965;SDS011;8599;47.852;12.070;2022-12-15T10:57:19;32.43;;;14.73;;
16965;SDS011;8599;47.852;12.070;2022-12-15T10:59:51;27.97;;;12.87;;
16965;SDS011;8599;47.852;12.070;2022-12-15T11:02:24;25.80;;;13.17;;
16965;SDS011;8599;47.852;12.070;2022-12-15T11:05:01;29.27;;;13.40;;
16965;SDS011;8599;47.852;12.070;2022-12-15T11:07:35;29.00;;;14.97;;
16965;SDS011;8599;47.852;12.070;2022-12-15T11:10:12;37.20;;;14.70;;
16965;SDS011;8599;47.852;12.070;2022-12-15T11:12:41;31.77;;;14.03;;
16965;SDS011;8599;47.852;12.070;2022-12-15T11:15:33;31.63;;;13.97;;
16965;SDS011;8599;47.852;12.070;2022-12-15T11:18:10;34.47;;;15.00;;
16965;SDS011;8599;47.852;12.070;2022-12-15T11:20:58;35.63;;;13.97;;
16965;SDS011;8599;47.852;12.070;2022-12-15T11:23:35;31.20;;;14.33;;
16965;SDS011;8599;47.852;12.070;2022-12-15T11:26:15;31.50;;;14.33;;
16965;SDS011;8599;47.852;12.070;2022-12-15T11:28:51;30.67;;;13.80;;
16965;SDS011;8599;47.852;12.070;2022-12-15T11:31:24;32.37;;;14.43;;
16965;SDS011;8599;47.852;12.070;2022-12-15T11:33:57;33.43;;;16.37;;
16965;SDS011;8599;47.852;12.070;2022-12-15T11:36:34;33.10;;;15.07;;
16965;SDS011;8599;47.852;12.070;2022-12-15T11:39:23;24.37;;;13.93;;
16965;SDS011;8599;47.852;12.070;2022-12-15T11:42:03;30.63;;;13.47;;
16965;SDS011;8599;47.852;12.070;2022-12-15T11:44:34;36.77;;;15.37;;
16965;SDS011;8599;47.852;12.070;2022-12-15T11:47:10;28.10;;;15.43;;
16965;SDS011;8599;47.852;12.070;2022-12-15T11:49:47;32.70;;;15.40;;
16965;SDS011;8599;47.852;12.070;2022-12-15T11:52:32;27.50;;;13.17;;
16965;SDS011;8599;47.852;12.070;2022-12-15T11:55:21;29.83;;;15.07;;
16965;SDS011;8599;47.852;12.070;2022-12-15T11:58:05;31.03;;;15.20;;
16965;SDS011;8599;47.852;12.070;2022-12-15T12:00:49;54.27;;;18.47;;
16965;SDS011;8599;47.852;12.070;2022-12-15T12:03:26;38.50;;;17.90;;
16965;SDS011;8599;47.852;12.070;2022-12-15T12:06:04;25.33;;;14.47;;
16965;SDS011;8599;47.852;12.070;2022-12-15T12:08:46;32.37;;;16.57;;
16965;SDS011;8599;47.852;12.070;2022-12-15T12:11:23;24.67;;;14.47;;
16965;SDS011;8599;47.852;12.070;2022-12-15T12:13:59;32.77;;;15.53;;
16965;SDS011;8599;47.852;12.070;2022-12-15T12:16:37;40.57;;;16.50;;
16965;SDS011;8599;47.852;12.070;2022-12-15T12:19:10;27.20;;;14.57;;
16965;SDS011;8599;47.852;12.070;2022-12-15T12:21:41;30.60;;;15.73;;
16965;SDS011;8599;47.852;12.070;2022-12-15T12:24:10;34.37;;;16.17;;
16965;SDS011;8599;47.852;12.070;2022-12-15T12:26:44;32.50;;;15.23;;
16965;SDS011;8599;47.852;12.070;2022-12-15T12:29:15;46.50;;;16.20;;
16965;SDS011;8599;47.852;12.070;2022-12-15T12:31:49;30.10;;;14.33;;
16965;SDS011;8599;47.852;12.070;2022-12-15T12:34:23;26.80;;;14.10;;
16965;SDS011;8599;47.852;12.070;2022-12-15T12:36:56;35.03;;;14.77;;
16965;SDS011;8599;47.852;12.070;2022-12-15T12:39:29;39.63;;;17.23;;
16965;SDS011;8599;47.852;12.070;2022-12-15T12:41:59;33.23;;;15.10;;
16965;SDS011;8599;47.852;12.070;2022-12-15T12:44:32;34.87;;;15.73;;
16965;SDS011;8599;47.852;12.070;2022-12-15T12:47:04;44.43;;;16.27;;
16965;SDS011;8599;47.852;12.070;2022-12-15T12:49:37;31.10;;;15.47;;
16965;SDS011;8599;47.852;12.070;2022-12-15T12:52:13;36.10;;;17.30;;
16965;SDS011;8599;47.852;12.070;2022-12-15T12:54:49;28.60;;;14.77;;
16965;SDS011;8599;47.852;12.070;2022-12-15T13:00:13;27.87;;;15.90;;
16965;SDS011;8599;47.852;12.070;2022-12-15T13:02:44;26.90;;;14.10;;
16965;SDS011;8599;47.852;12.070;2022-12-15T13:05:33;34.30;;;15.80;;
16965;SDS011;8599;47.852;12.070;2022-12-15T13:14:08;26.13;;;13.20;;
16965;SDS011;8599;47.852;12.070;2022-12-15T13:16:39;29.83;;;14.57;;
16965;SDS011;8599;47.852;12.070;2022-12-15T13:19:06;40.80;;;16.40;;
16965;SDS011;8599;47.852;12.070;2022-12-15T13:21:52;36.47;;;16.67;;
16965;SDS011;8599;47.852;12.070;2022-12-15T13:24:24;32.57;;;15.33;;
16965;SDS011;8599;47.852;12.070;2022-12-15T13:27:03;30.53;;;14.37;;
16965;SDS011;8599;47.852;12.070;2022-12-15T13:29:54;30.27;;;13.80;;
16965;SDS011;8599;47.852;12.070;2022-12-15T13:32:27;40.73;;;15.03;;
16965;SDS011;8599;47.852;12.070;2022-12-15T13:35:00;38.40;;;15.57;;
16965;SDS011;8599;47.852;12.070;2022-12-15T13:37:48;36.33;;;15.93;;
16965;SDS011;8599;47.852;12.070;2022-12-15T13:40:24;36.33;;;14.03;;
16965;SDS011;8599;47.852;12.070;2022-12-15T13:42:57;35.00;;;17.40;;
16965;SDS011;8599;47.852;12.070;2022-12-15T13:48:31;35.13;;;15.83;;
16965;SDS011;8599;47.852;12.070;2022-12-15T13:51:01;38.77;;;15.63;;
16965;SDS011;8599;47.852;12.070;2022-12-15T13:53:47;33.37;;;15.07;;
16965;SDS011;8599;47.852;12.070;2022-12-15T13:56:38;35.90;;;16.17;;
16965;SDS011;8599;47.852;12.070;2022-12-15T13:59:17;34.70;;;16.60;;
16965;SDS011;8599;47.852;12.070;2022-12-15T14:01:52;33.77;;;15.87;;
16965;SDS011;8599;47.852;12.070;2022-12-15T14:04:19;30.03;;;14.93;;
16965;SDS011;8599;47.852;12.070;2022-12-15T14:06:48;29.20;;;14.17;;
16965;SDS011;8599;47.852;12.070;2022-12-15T14:09:19;32.83;;;15.60;;
16965;SDS011;8599;47.852;12.070;2022-12-15T14:11:48;39.87;;;15.20;;
16965;SDS011;8599;47.852;12.070;2022-12-15T14:14:16;36.57;;;14.87;;
16965;SDS011;8599;47.852;12.070;2022-12-15T14:16:51;35.53;;;15.50;;
16965;SDS011;8599;47.852;12.070;2022-12-15T14:19:25;29.00;;;15.90;;
16965;SDS011;8599;47.852;12.070;2022-12-15T14:22:01;31.40;;;14.00;;
16965;SDS011;8599;47.852;12.070;2022-12-15T14:24:29;32.50;;;15.20;;
16965;SDS011;8599;47.852;12.070;2022-12-15T14:26:57;33.13;;;14.00;;
16965;SDS011;8599;47.852;12.070;2022-12-15T14:29:24;35.73;;;15.63;;
16965;SDS011;8599;47.852;12.070;2022-12-15T14:31:53;33.83;;;15.67;;
16965;SDS011;8599;47.852;12.070;2022-12-15T14:34:23;30.97;;;14.20;;
16965;SDS011;8599;47.852;12.070;2022-12-15T14:36:53;37.87;;;17.43;;
16965;SDS011;8599;47.852;12.070;2022-12-15T14:39:24;30.90;;;14.17;;
16965;SDS011;8599;47.852;12.070;2022-12-15T14:41:53;36.03;;;15.90;;
16965;SDS011;8599;47.852;12.070;2022-12-15T14:44:26;32.93;;;14.03;;
16965;SDS011;8599;47.852;12.070;2022-12-15T14:46:57;31.87;;;15.13;;
16965;SDS011;8599;47.852;12.070;2022-12-15T14:49:28;33.60;;;15.47;;
16965;SDS011;8599;47.852;12.070;2022-12-15T14:51:58;38.43;;;15.73;;
16965;SDS011;8599;47.852;12.070;2022-12-15T14:54:27;36.47;;;14.97;;
16965;SDS011;8599;47.852;12.070;2022-12-15T14:56:58;31.53;;;16.03;;
16965;SDS011;8599;47.852;12.070;2022-12-15T14:59:28;32.83;;;15.47;;
16965;SDS011;8599;47.852;12.070;2022-12-15T15:02:00;29.87;;;14.77;;
16965;SDS011;8599;47.852;12.070;2022-12-15T15:04:36;31.37;;;15.17;;
16965;SDS011;8599;47.852;12.070;2022-12-15T15:07:04;34.80;;;15.53;;
16965;SDS011;8599;47.852;12.070;2022-12-15T15:09:37;29.80;;;14.23;;
16965;SDS011;8599;47.852;12.070;2022-12-15T15:12:06;39.73;;;16.93;;
16965;SDS011;8599;47.852;12.070;2022-12-15T15:14:38;32.90;;;15.17;;
16965;SDS011;8599;47.852;12.070;2022-12-15T15:17:12;33.67;;;16.37;;
16965;SDS011;8599;47.852;12.070;2022-12-15T15:19:48;42.97;;;19.07;;
16965;SDS011;8599;47.852;12.070;2022-12-15T15:22:24;38.10;;;17.63;;
16965;SDS011;8599;47.852;12.070;2022-12-15T15:24:58;35.80;;;14.87;;
16965;SDS011;8599;47.852;12.070;2022-12-15T15:27:28;42.00;;;16.70;;